createdAt,value
2022-10-13T00:00:01.561Z,11.07
2022-10-13T00:02:30.750Z,10.67
2022-10-13T00:05:02.653Z,10.30
2022-10-13T00:07:44.396Z,9.60
2022-10-13T00:10:15.736Z,10.10
2022-10-13T00:12:54.923Z,10.80
2022-10-13T00:15:45.659Z,9.47
2022-10-13T00:18:24.692Z,10.80
2022-10-13T00:20:58.872Z,12.43
2022-10-13T00:23:40.503Z,13.37
2022-10-13T00:26:16.247Z,11.87
2022-10-13T00:28:53.378Z,11.93
2022-10-13T00:31:25.864Z,11.10
2022-10-13T00:33:54.787Z,12.27
2022-10-13T00:36:26.396Z,12.07
2022-10-13T00:39:01.637Z,12.60
2022-10-13T00:41:33.447Z,12.93
2022-10-13T00:44:08.585Z,14.60
2022-10-13T00:46:38.961Z,12.33
2022-10-13T00:49:16.095Z,12.50
2022-10-13T00:51:50.277Z,13.57
2022-10-13T00:54:25.292Z,12.13
2022-10-13T00:56:57.285Z,11.90
2022-10-13T00:59:29.230Z,11.63
2022-10-13T01:02:17.664Z,12.03
2022-10-13T01:04:54.174Z,11.33
2022-10-13T01:07:24.757Z,12.00
2022-10-13T01:10:03.452Z,11.87
2022-10-13T01:12:44.530Z,12.43
2022-10-13T01:15:27.300Z,11.70
2022-10-13T01:18:09.237Z,12.23
2022-10-13T01:21:17.060Z,11.67
2022-10-13T01:24:24.574Z,11.30
2022-10-13T01:27:09.438Z,12.27
2022-10-13T01:30:08.322Z,11.57
2022-10-13T01:33:15.515Z,12.33
2022-10-13T01:35:53.204Z,11.50
2022-10-13T01:38:40.373Z,12.03
2022-10-13T01:41:23.771Z,12.47
2022-10-13T01:44:16.631Z,10.20
2022-10-13T01:47:08.384Z,11.07
2022-10-13T01:49:57.814Z,11.67
2022-10-13T01:52:46.752Z,12.20
2022-10-13T01:55:34.811Z,11.40
2022-10-13T01:58:04.739Z,11.10
2022-10-13T02:00:43.736Z,11.80
2022-10-13T02:03:18.903Z,11.60
2022-10-13T02:05:50.922Z,12.93
2022-10-13T02:08:25.869Z,13.00
2022-10-13T02:11:01.131Z,11.83
2022-10-13T02:13:32.436Z,12.60
2022-10-13T02:16:02.588Z,13.03
2022-10-13T02:18:37.053Z,12.13
2022-10-13T02:21:05.901Z,12.07
2022-10-13T02:23:34.407Z,12.23
2022-10-13T02:26:03.440Z,13.60
2022-10-13T02:28:31.894Z,13.90
2022-10-13T02:31:01.199Z,13.00
2022-10-13T02:33:29.878Z,13.43
2022-10-13T02:35:59.852Z,15.30
2022-10-13T02:38:28.193Z,13.13
2022-10-13T02:40:56.565Z,13.40
2022-10-13T02:43:24.997Z,14.30
2022-10-13T02:45:56.334Z,13.83
2022-10-13T02:48:24.948Z,13.50
2022-10-13T02:50:53.265Z,14.67
2022-10-13T02:53:29.656Z,14.83
2022-10-13T02:56:01.190Z,13.67
2022-10-13T02:58:31.810Z,14.77
2022-10-13T03:01:10.250Z,13.93
2022-10-13T03:03:42.239Z,15.27
2022-10-13T03:06:10.580Z,14.37
2022-10-13T03:08:40.461Z,14.43
2022-10-13T03:11:09.153Z,14.43
2022-10-13T03:13:40.531Z,13.80
2022-10-13T03:16:10.818Z,14.73
2022-10-13T03:18:42.347Z,14.67
2022-10-13T03:21:11.963Z,14.50
2022-10-13T03:23:41.715Z,14.00
2022-10-13T03:26:13.669Z,14.23
2022-10-13T03:28:42.235Z,14.07
2022-10-13T03:31:13.037Z,14.00
2022-10-13T03:33:42.217Z,14.77
2022-10-13T03:36:16.360Z,15.67
2022-10-13T03:38:51.883Z,13.77
2022-10-13T03:41:20.245Z,14.40
2022-10-13T03:43:49.094Z,13.90
2022-10-13T03:46:19.193Z,14.00
2022-10-13T03:48:48.728Z,14.97
2022-10-13T03:51:19.641Z,16.37
2022-10-13T03:53:51.945Z,14.70
2022-10-13T03:56:25.825Z,16.57
2022-10-13T03:58:57.228Z,17.07
2022-10-13T04:01:27.546Z,16.40
2022-10-13T04:03:59.846Z,17.13
2022-10-13T04:06:28.288Z,16.27
2022-10-13T04:09:01.709Z,16.20
2022-10-13T04:11:35.653Z,15.43
2022-10-13T04:14:04.092Z,15.60
2022-10-13T04:16:33.483Z,15.47
2022-10-13T04:19:04.012Z,15.43
2022-10-13T04:21:36.570Z,14.67
2022-10-13T04:24:07.205Z,15.47
2022-10-13T04:26:37.764Z,16.70
2022-10-13T04:29:08.295Z,16.07
2022-10-13T04:31:40.418Z,15.73
2022-10-13T04:34:08.775Z,16.23
2022-10-13T04:36:40.137Z,16.03
2022-10-13T04:39:08.555Z,16.57
2022-10-13T04:41:42.607Z,17.53
2022-10-13T04:44:11.186Z,18.13
2022-10-13T04:46:40.229Z,18.60
2022-10-13T04:49:10.649Z,16.97
2022-10-13T04:51:39.767Z,17.47
2022-10-13T04:54:10.046Z,17.10
2022-10-13T04:56:44.713Z,16.73
2022-10-13T04:59:13.524Z,18.17
2022-10-13T05:01:42.088Z,17.07
2022-10-13T05:04:14.265Z,17.23
2022-10-13T05:07:12.666Z,15.67
2022-10-13T05:09:32.412Z,16.50
2022-10-13T05:12:05.164Z,16.07
2022-10-13T05:14:35.013Z,16.33
2022-10-13T05:17:03.377Z,15.73
2022-10-13T05:19:35.683Z,15.90
2022-10-13T05:22:03.921Z,16.57
2022-10-13T05:24:37.422Z,18.10
2022-10-13T05:27:11.529Z,19.00
2022-10-13T05:29:46.747Z,18.47
2022-10-13T05:32:16.009Z,17.97
2022-10-13T05:34:48.508Z,19.67
2022-10-13T05:37:18.362Z,20.10
2022-10-13T05:39:48.842Z,20.43
2022-10-13T05:42:19.234Z,20.87
2022-10-13T05:44:53.837Z,20.03
2022-10-13T05:47:26.740Z,18.53
2022-10-13T05:49:59.880Z,18.77
2022-10-13T05:52:29.854Z,20.77
2022-10-13T05:55:03.991Z,20.13
2022-10-13T05:57:36.647Z,19.37
2022-10-13T06:00:08.957Z,19.77
2022-10-13T06:02:43.326Z,18.80
2022-10-13T06:05:15.691Z,18.67
2022-10-13T06:07:48.013Z,19.63
2022-10-13T06:10:17.184Z,20.13
2022-10-13T06:12:47.003Z,19.93
2022-10-13T06:15:16.564Z,20.83
2022-10-13T06:17:47.467Z,21.57
2022-10-13T06:20:16.406Z,21.77
2022-10-13T06:22:46.401Z,22.00
2022-10-13T06:25:14.786Z,20.63
2022-10-13T06:27:43.577Z,21.83
2022-10-13T06:30:14.130Z,21.67
2022-10-13T06:32:42.990Z,21.50
2022-10-13T06:35:15.312Z,20.33
2022-10-13T06:37:43.671Z,20.27
2022-10-13T06:40:13.033Z,20.50
2022-10-13T06:42:41.721Z,19.40
2022-10-13T06:45:11.329Z,21.03
2022-10-13T06:47:42.743Z,21.47
2022-10-13T06:50:14.256Z,22.43
2022-10-13T06:52:43.474Z,20.97
2022-10-13T06:55:12.015Z,22.87
2022-10-13T06:57:43.983Z,22.53
2022-10-13T07:00:14.091Z,21.27
2022-10-13T07:02:54.777Z,20.50
2022-10-13T07:05:26.043Z,22.60
2022-10-13T07:07:54.870Z,24.07
2022-10-13T07:10:25.904Z,22.10
2022-10-13T07:12:54.421Z,22.30
2022-10-13T07:15:24.695Z,23.27
2022-10-13T07:17:56.068Z,23.17
2022-10-13T07:20:28.873Z,24.20
2022-10-13T07:22:59.615Z,23.97
2022-10-13T07:25:28.012Z,22.57
2022-10-13T07:27:56.474Z,24.23
2022-10-13T07:30:24.994Z,24.27
2022-10-13T07:32:54.912Z,26.80
2022-10-13T07:35:30.290Z,25.13
2022-10-13T07:37:59.410Z,25.17
2022-10-13T07:40:28.116Z,24.53
2022-10-13T07:42:57.576Z,28.07
2022-10-13T07:45:26.936Z,25.80
2022-10-13T07:47:57.656Z,25.33
2022-10-13T07:50:25.915Z,24.70
2022-10-13T07:52:55.221Z,24.80
2022-10-13T07:55:23.681Z,25.90
2022-10-13T07:57:53.418Z,25.27
2022-10-13T08:00:22.073Z,24.10
2022-10-13T08:02:51.591Z,24.67
2022-10-13T08:05:21.447Z,24.77
2022-10-13T08:07:54.650Z,24.87
2022-10-13T08:10:26.057Z,23.50
2022-10-13T08:12:54.597Z,25.40
2022-10-13T08:15:23.258Z,24.20
2022-10-13T08:17:51.947Z,23.53
2022-10-13T08:20:22.066Z,24.00
2022-10-13T08:22:50.539Z,23.03
2022-10-13T08:25:18.916Z,23.73
2022-10-13T08:27:51.679Z,22.60
2022-10-13T08:30:21.826Z,22.93
2022-10-13T08:32:50.574Z,23.03
2022-10-13T08:35:18.872Z,22.03
2022-10-13T08:37:48.773Z,22.37
2022-10-13T08:40:21.064Z,22.30
2022-10-13T08:43:00.539Z,21.27
2022-10-13T08:45:46.949Z,23.47
2022-10-13T08:48:19.804Z,22.03
2022-10-13T08:50:52.467Z,20.73
2022-10-13T08:53:28.723Z,20.87
2022-10-13T08:55:59.142Z,21.57
2022-10-13T08:58:31.079Z,20.47
2022-10-13T09:01:11.463Z,19.37
2022-10-13T09:03:48.357Z,21.53
2022-10-13T09:06:21.612Z,21.10
2022-10-13T09:08:55.054Z,21.67
2022-10-13T09:11:24.282Z,21.20
2022-10-13T09:13:56.647Z,19.03
2022-10-13T09:16:30.280Z,20.93
2022-10-13T09:19:14.690Z,20.47
2022-10-13T09:21:43.522Z,21.90
2022-10-13T09:24:17.247Z,21.50
2022-10-13T09:26:47.870Z,21.67
2022-10-13T09:29:19.224Z,21.23
2022-10-13T09:31:48.012Z,20.20
2022-10-13T09:34:26.511Z,20.07
2022-10-13T09:36:59.818Z,20.70
2022-10-13T09:39:30.089Z,21.30
2022-10-13T09:42:22.742Z,20.30
2022-10-13T09:44:59.568Z,20.90
2022-10-13T09:47:30.813Z,19.60
2022-10-13T09:50:06.620Z,19.53
2022-10-13T09:52:36.720Z,20.20
2022-10-13T09:55:32.342Z,20.13
2022-10-13T09:58:07.113Z,20.57
2022-10-13T10:00:36.645Z,21.40
2022-10-13T10:03:12.680Z,20.03
2022-10-13T10:05:50.673Z,18.87
2022-10-13T10:08:33.572Z,19.80
2022-10-13T10:11:16.271Z,20.30
2022-10-13T10:13:44.688Z,19.10
2022-10-13T10:16:21.175Z,20.70
2022-10-13T10:18:58.607Z,25.67
2022-10-13T10:21:36.147Z,27.23
2022-10-13T10:24:10.330Z,23.47
2022-10-13T10:26:52.813Z,21.50
2022-10-13T10:29:27.247Z,21.63
2022-10-13T10:32:06.358Z,21.90
2022-10-13T10:34:41.451Z,20.53
2022-10-13T10:37:25.163Z,23.73
2022-10-13T10:40:04.573Z,21.57
2022-10-13T10:42:54.280Z,22.27
2022-10-13T10:45:27.114Z,20.87
2022-10-13T10:47:58.892Z,24.43
2022-10-13T10:50:29.310Z,22.90
2022-10-13T10:53:03.676Z,22.17
2022-10-13T10:55:36.785Z,20.40
2022-10-13T10:58:21.770Z,17.97
2022-10-13T11:00:56.553Z,16.70
2022-10-13T11:03:41.859Z,15.40
2022-10-13T11:06:27.310Z,13.87
2022-10-13T11:08:56.629Z,13.63
2022-10-13T11:11:42.503Z,12.83
2022-10-13T11:14:42.372Z,13.07
2022-10-13T11:17:19.581Z,12.93
2022-10-13T11:19:49.894Z,13.03
2022-10-13T11:22:23.452Z,13.13
2022-10-13T11:25:14.257Z,12.30
2022-10-13T11:27:45.122Z,12.33
2022-10-13T11:30:50.320Z,13.67
2022-10-13T11:33:54.018Z,13.63
2022-10-13T11:36:49.406Z,14.03
2022-10-13T11:39:55.465Z,15.07
2022-10-13T11:42:53.312Z,13.57
2022-10-13T11:45:54.650Z,13.63
2022-10-13T11:48:58.943Z,12.43
2022-10-13T11:51:40.364Z,13.70
2022-10-13T11:54:22.927Z,11.53
2022-10-13T11:56:54.313Z,11.37
2022-10-13T11:59:26.712Z,12.03
2022-10-13T12:01:57.612Z,11.53
2022-10-13T12:04:28.939Z,12.87
2022-10-13T12:07:01.251Z,13.67
2022-10-13T12:09:32.584Z,13.57
2022-10-13T12:12:04.820Z,11.60
2022-10-13T12:17:23.748Z,10.70
2022-10-13T12:19:53.676Z,10.30
2022-10-13T12:22:22.556Z,9.30
2022-10-13T12:25:01.692Z,10.20
2022-10-13T12:27:33.501Z,10.57
2022-10-13T12:30:02.315Z,11.00
2022-10-13T12:32:35.921Z,10.47
2022-10-13T12:35:20.336Z,10.70
2022-10-13T12:37:49.741Z,9.97
2022-10-13T12:40:20.154Z,9.83
2022-10-13T12:42:49.895Z,9.83
2022-10-13T12:45:20.777Z,9.97
2022-10-13T12:47:53.953Z,10.13
2022-10-13T12:50:40.661Z,9.97
2022-10-13T12:53:18.590Z,10.30
2022-10-13T12:55:59.338Z,9.97
2022-10-13T12:58:29.895Z,10.57
2022-10-13T13:01:07.196Z,10.20
2022-10-13T13:03:39.006Z,9.87
2022-10-13T13:06:11.990Z,9.57
2022-10-13T13:08:42.400Z,11.00
2022-10-13T13:11:33.847Z,10.87
2022-10-13T13:14:23.858Z,10.73
2022-10-13T13:17:07.977Z,10.90
2022-10-13T13:19:38.386Z,10.30
2022-10-13T13:22:07.737Z,10.20
2022-10-13T13:24:40.206Z,9.77
2022-10-13T13:27:17.458Z,9.37
2022-10-13T13:29:46.316Z,10.97
2022-10-13T13:32:17.406Z,10.27
2022-10-13T13:34:49.138Z,10.20
2022-10-13T13:37:30.691Z,10.33
2022-10-13T13:39:59.368Z,11.50
2022-10-13T13:42:29.779Z,11.53
2022-10-13T13:44:58.443Z,12.53
2022-10-13T13:47:28.325Z,11.20
2022-10-13T13:49:58.620Z,9.63
2022-10-13T13:52:27.173Z,8.97
2022-10-13T13:54:56.692Z,9.43
2022-10-13T13:57:24.951Z,9.50
2022-10-13T13:59:53.497Z,9.40
2022-10-13T14:02:24.040Z,8.77
2022-10-13T14:04:53.504Z,9.37
2022-10-13T14:07:23.303Z,9.30
2022-10-13T14:09:52.010Z,9.17
2022-10-13T14:12:20.716Z,9.80
2022-10-13T14:14:49.415Z,9.40
2022-10-13T14:17:17.699Z,9.30
2022-10-13T14:19:46.206Z,8.47
2022-10-13T14:22:14.547Z,8.67
2022-10-13T14:24:48.367Z,7.57
2022-10-13T14:27:16.976Z,9.80
2022-10-13T14:29:45.504Z,8.03
2022-10-13T14:32:14.108Z,8.37
2022-10-13T14:34:43.015Z,9.37
2022-10-13T14:37:11.290Z,7.97
2022-10-13T14:39:39.588Z,8.43
2022-10-13T14:42:10.088Z,8.50
2022-10-13T14:44:38.706Z,8.57
2022-10-13T14:47:07.093Z,7.50
2022-10-13T14:49:35.874Z,8.60
2022-10-13T14:52:04.739Z,7.97
2022-10-13T14:54:35.689Z,8.07
2022-10-13T14:57:05.721Z,7.97
2022-10-13T14:59:35.836Z,8.50
2022-10-13T15:02:04.283Z,8.27
2022-10-13T15:04:32.708Z,8.90
2022-10-13T15:07:01.228Z,7.60
2022-10-13T15:09:38.986Z,7.90
2022-10-13T15:12:18.256Z,9.07
2022-10-13T15:14:48.334Z,8.57
2022-10-13T15:17:16.803Z,8.63
2022-10-13T15:19:45.106Z,8.70
2022-10-13T15:22:13.413Z,8.73
2022-10-13T15:24:42.304Z,8.47
2022-10-13T15:27:10.814Z,8.77
2022-10-13T15:29:39.361Z,8.07
2022-10-13T15:32:11.453Z,7.93
2022-10-13T15:34:41.979Z,8.67
2022-10-13T15:37:11.412Z,8.30
2022-10-13T15:39:39.999Z,8.23
2022-10-13T15:42:08.370Z,7.80
2022-10-13T15:47:26.843Z,8.57
2022-10-13T15:49:56.101Z,7.33
2022-10-13T15:52:32.308Z,8.10
2022-10-13T15:55:03.092Z,8.07
2022-10-13T15:57:32.213Z,8.27
2022-10-13T16:00:01.087Z,8.63
2022-10-13T16:02:30.705Z,8.90
2022-10-13T16:05:04.768Z,8.20
2022-10-13T16:07:33.604Z,8.43
2022-10-13T16:10:02.725Z,8.83
2022-10-13T16:12:31.472Z,8.63
2022-10-13T16:15:00.474Z,9.07
2022-10-13T16:17:30.305Z,8.80
2022-10-13T16:19:59.077Z,9.33
2022-10-13T16:22:27.747Z,9.10
2022-10-13T16:24:56.497Z,8.50
2022-10-13T16:27:27.226Z,9.00
2022-10-13T16:29:56.490Z,8.40
2022-10-13T16:32:27.037Z,9.70
2022-10-13T16:34:57.017Z,10.00
2022-10-13T16:37:25.325Z,10.43
2022-10-13T16:39:57.126Z,11.03
2022-10-13T16:42:25.760Z,9.70
2022-10-13T16:44:54.732Z,10.83
2022-10-13T16:47:24.105Z,11.27
2022-10-13T16:49:53.008Z,10.10
2022-10-13T16:52:22.978Z,9.83
2022-10-13T16:54:51.487Z,9.70
2022-10-13T16:57:20.161Z,9.50
2022-10-13T16:59:49.023Z,9.60
2022-10-13T17:02:17.474Z,9.20
2022-10-13T17:04:45.918Z,9.20
2022-10-13T17:07:14.553Z,9.43
2022-10-13T17:09:44.473Z,9.60
2022-10-13T17:12:13.060Z,9.27
2022-10-13T17:14:44.895Z,9.73
2022-10-13T17:17:13.825Z,9.17
2022-10-13T17:19:42.833Z,10.20
2022-10-13T17:22:11.029Z,9.90
2022-10-13T17:24:42.883Z,9.30
2022-10-13T17:27:12.502Z,9.73
2022-10-13T17:29:40.938Z,10.43
2022-10-13T17:32:09.981Z,9.77
2022-10-13T17:34:39.254Z,9.70
2022-10-13T17:37:07.781Z,9.43
2022-10-13T17:39:37.818Z,9.00
2022-10-13T17:42:06.941Z,9.27
2022-10-13T17:44:40.150Z,9.40
2022-10-13T17:47:08.806Z,11.40
2022-10-13T17:49:38.446Z,10.93
2022-10-13T17:52:07.626Z,10.60
2022-10-13T17:54:36.216Z,10.83
2022-10-13T17:57:05.902Z,11.57
2022-10-13T17:59:34.231Z,11.43
2022-10-13T18:02:04.275Z,12.37
2022-10-13T18:04:33.760Z,12.67
2022-10-13T18:07:02.038Z,12.00
2022-10-13T18:09:33.959Z,13.23
2022-10-13T18:12:03.266Z,13.17
2022-10-13T18:14:32.508Z,16.23
2022-10-13T18:17:01.494Z,16.93
2022-10-13T18:19:31.144Z,15.87
2022-10-13T18:21:59.768Z,16.00
2022-10-13T18:24:28.240Z,13.50
2022-10-13T18:26:57.870Z,12.70
2022-10-13T18:29:26.485Z,11.90
2022-10-13T18:31:57.104Z,11.87
2022-10-13T18:34:25.591Z,11.57
2022-10-13T18:36:56.160Z,12.47
2022-10-13T18:39:26.525Z,12.37
2022-10-13T18:41:56.926Z,11.83
2022-10-13T18:44:25.993Z,12.47
2022-10-13T18:46:56.584Z,12.00
2022-10-13T18:49:30.973Z,11.00
2022-10-13T18:52:02.682Z,11.03
2022-10-13T18:54:31.650Z,11.67
2022-10-13T18:57:00.188Z,11.27
2022-10-13T18:59:28.722Z,11.27
2022-10-13T19:01:57.256Z,13.07
2022-10-13T19:04:27.712Z,11.50
2022-10-13T19:06:56.298Z,12.50
2022-10-13T19:09:26.870Z,13.03
2022-10-13T19:11:59.411Z,11.27
2022-10-13T19:14:27.776Z,12.50
2022-10-13T19:17:01.621Z,13.83
2022-10-13T19:19:30.405Z,12.47
2022-10-13T19:21:59.050Z,13.77
2022-10-13T19:24:28.840Z,14.23
2022-10-13T19:26:57.339Z,12.93
2022-10-13T19:29:25.649Z,14.50
2022-10-13T19:31:54.141Z,13.60
2022-10-13T19:34:22.512Z,12.93
2022-10-13T19:36:51.130Z,13.97
2022-10-13T19:39:22.877Z,12.13
2022-10-13T19:41:54.392Z,13.20
2022-10-13T19:44:24.398Z,13.87
2022-10-13T19:46:53.445Z,13.43
2022-10-13T19:49:25.935Z,14.07
2022-10-13T19:51:54.815Z,13.17
2022-10-13T19:54:23.829Z,13.93
2022-10-13T19:56:53.794Z,13.97
2022-10-13T19:59:25.225Z,13.27
2022-10-13T20:01:53.566Z,13.90
2022-10-13T20:04:22.112Z,14.07
2022-10-13T20:06:52.769Z,13.63
2022-10-13T20:09:22.316Z,14.67
2022-10-13T20:11:53.230Z,13.23
2022-10-13T20:14:22.144Z,13.37
2022-10-13T20:16:50.512Z,13.00
2022-10-13T20:19:20.314Z,13.50
2022-10-13T20:21:51.534Z,12.90
2022-10-13T20:24:21.626Z,12.77
2022-10-13T20:26:50.140Z,13.37
2022-10-13T20:29:20.251Z,12.90
2022-10-13T20:31:48.823Z,11.97
2022-10-13T20:34:18.445Z,11.80
2022-10-13T20:36:47.044Z,12.10
2022-10-13T20:39:15.833Z,12.03
2022-10-13T20:41:44.775Z,12.40
2022-10-13T20:44:13.247Z,12.60
2022-10-13T20:46:42.907Z,13.43
2022-10-13T20:49:13.078Z,12.70
2022-10-13T20:51:43.041Z,12.10
2022-10-13T20:54:12.203Z,12.87
2022-10-13T20:56:41.437Z,13.70
2022-10-13T20:59:13.878Z,13.53
2022-10-13T21:01:43.758Z,12.77
2022-10-13T21:04:12.241Z,13.83
2022-10-13T21:06:41.846Z,14.37
2022-10-13T21:09:11.622Z,12.57
2022-10-13T21:11:40.728Z,13.60
2022-10-13T21:14:10.174Z,13.27
2022-10-13T21:16:39.331Z,11.60
2022-10-13T21:19:09.019Z,14.43
2022-10-13T21:21:37.932Z,13.13
2022-10-13T21:24:08.082Z,14.00
2022-10-13T21:26:36.903Z,13.97
2022-10-13T21:29:05.865Z,13.40
2022-10-13T21:31:34.426Z,14.13
2022-10-13T21:34:03.130Z,13.40
2022-10-13T21:36:33.947Z,12.67
2022-10-13T21:39:05.731Z,13.63
2022-10-13T21:41:34.527Z,11.70
2022-10-13T21:44:03.377Z,12.10
2022-10-13T21:46:33.199Z,12.67
2022-10-13T21:49:04.257Z,11.23
2022-10-13T21:51:35.557Z,11.97
2022-10-13T21:54:06.281Z,12.37
2022-10-13T21:56:35.248Z,13.40
2022-10-13T21:59:04.001Z,11.80
2022-10-13T22:01:32.552Z,11.53
2022-10-13T22:04:02.689Z,12.17
2022-10-13T22:06:34.544Z,12.00
2022-10-13T22:09:05.599Z,12.07
2022-10-13T22:11:37.190Z,11.80
2022-10-13T22:14:06.051Z,12.47
2022-10-13T22:16:37.045Z,12.67
2022-10-13T22:19:07.132Z,12.07
2022-10-13T22:21:39.774Z,12.03
2022-10-13T22:24:10.605Z,11.80
2022-10-13T22:26:42.105Z,12.70
2022-10-13T22:29:12.965Z,12.47
2022-10-13T22:34:25.663Z,14.10
2022-10-13T22:36:57.465Z,13.40
2022-10-13T22:42:16.921Z,15.90
2022-10-13T22:44:48.869Z,15.30
2022-10-13T22:47:18.876Z,15.70
2022-10-13T22:49:50.214Z,15.67
2022-10-13T22:52:23.151Z,15.03
2022-10-13T22:54:53.980Z,14.90
2022-10-13T22:57:28.323Z,12.87
2022-10-13T22:59:59.628Z,12.90
2022-10-13T23:02:28.720Z,13.27
2022-10-13T23:05:00.569Z,13.30
2022-10-13T23:07:34.638Z,13.23
2022-10-13T23:10:05.988Z,12.53
2022-10-13T23:12:40.759Z,13.20
2022-10-13T23:15:12.446Z,13.50
2022-10-13T23:17:42.955Z,12.67
2022-10-13T23:20:11.744Z,13.00
2022-10-13T23:22:44.253Z,13.50
2022-10-13T23:25:21.792Z,13.40
2022-10-13T23:27:52.871Z,12.90
2022-10-13T23:30:21.446Z,13.03
2022-10-13T23:33:03.012Z,13.87
2022-10-13T23:35:31.276Z,12.80
2022-10-13T23:38:00.932Z,13.43
2022-10-13T23:40:29.183Z,12.43
2022-10-13T23:43:04.567Z,13.67
2022-10-13T23:45:35.171Z,12.37
2022-10-13T23:48:10.963Z,12.03
2022-10-13T23:50:39.738Z,11.90
2022-10-13T23:53:11.485Z,12.83
2022-10-13T23:55:41.044Z,12.17
2022-10-13T23:58:15.357Z,12.47
